Time;durP1;ratioP1;P1;durP2;ratioP2;P2;SDS_P1;SDS_P2;PMS_P1;PMS_P2;Temp;Humidity;BMP_temperature;BMP_pressure;BME280_temperature;BME280_humidity;BME280_pressure;Samples;Min_cycle;Max_cycle;Signal;HPM_P1;HPM_P2
2022/04/10 00:00:46;;;;;;;21.45;3.67;;;5.90;99.90;;;;;;6088656;23;20034;-82
2022/04/10 00:03:12;;;;;;;13.95;3.40;;;3.10;99.90;;;;;;6090874;23;20027;-82
2022/04/10 00:05:37;;;;;;;22.70;4.30;;;6.00;99.90;;;;;;6089146;23;20469;-83
2022/04/10 00:08:04;;;;;;;21.58;3.70;;;5.80;99.90;;;;;;6092166;23;20022;-83
2022/04/10 00:10:30;;;;;;;25.83;4.00;;;4.50;99.90;;;;;;6040058;23;20026;-82
2022/04/10 00:12:56;;;;;;;19.30;3.15;;;;;;;;;;6089910;23;20342;-82
2022/04/10 00:15:22;;;;;;;19.27;4.15;;;;;;;;;;6091326;23;20026;-82
2022/04/10 00:17:48;;;;;;;24.42;4.40;;;7.30;99.90;;;;;;6089211;23;20470;-82
2022/04/10 00:20:14;;;;;;;27.80;4.13;;;3.80;99.90;;;;;;6089161;23;20022;-82
2022/04/10 00:22:45;;;;;;;22.67;4.05;;;6.20;99.90;;;;;;6064385;23;20030;-82
2022/04/10 00:25:13;;;;;;;17.35;4.00;;;5.90;99.90;;;;;;6064591;23;20014;-83
2022/04/10 00:27:42;;;;;;;21.38;3.90;;;4.70;99.90;;;;;;6092012;23;20347;-83
2022/04/10 00:30:11;;;;;;;27.02;4.05;;;4.30;99.90;;;;;;6090841;23;20337;-83
2022/04/10 00:32:37;;;;;;;15.95;2.85;;;2.90;99.90;;;;;;6091165;23;20026;-83
2022/04/10 00:35:08;;;;;;;23.77;4.25;;;5.30;99.90;;;;;;6089671;23;20134;-83
2022/04/10 00:37:34;;;;;;;25.40;4.15;;;2.00;99.90;;;;;;6064280;23;20556;-83
2022/04/10 00:40:03;;;;;;;19.50;3.70;;;5.60;99.90;;;;;;6089578;23;20022;-86
2022/04/10 00:42:33;;;;;;;20.48;3.35;;;5.00;99.90;;;;;;6089599;23;20077;-83
2022/04/10 00:44:59;;;;;;;17.20;3.83;;;5.30;99.90;;;;;;6090973;23;20395;-82
2022/04/10 00:47:25;;;;;;;24.48;4.22;;;4.60;99.90;;;;;;6068373;23;20019;-83
2022/04/10 00:49:51;;;;;;;17.38;3.30;;;5.00;99.90;;;;;;6087683;23;20094;-82
2022/04/10 00:52:19;;;;;;;19.52;3.30;;;6.30;99.90;;;;;;6088350;23;20026;-84
2022/04/10 00:54:45;;;;;;;18.65;3.95;;;5.80;99.90;;;;;;6063595;23;20112;-83
2022/04/10 00:57:12;;;;;;;15.90;3.67;;;7.00;99.90;;;;;;6088552;23;20106;-83
2022/04/10 00:59:39;;;;;;;21.73;3.22;;;2.30;99.90;;;;;;6088061;23;20027;-83
2022/04/10 01:02:05;;;;;;;15.68;3.75;;;4.00;99.90;;;;;;6089478;23;20437;-83
2022/04/10 01:04:32;;;;;;;24.08;4.07;;;3.60;99.90;;;;;;6063920;23;20033;-83
2022/04/10 01:06:59;;;;;;;22.15;3.70;;;4.40;99.90;;;;;;6089367;23;20026;-82
2022/04/10 01:09:26;;;;;;;19.08;4.20;;;6.00;99.90;;;;;;6089201;23;20093;-83
2022/04/10 01:11:54;;;;;;;21.90;4.18;;;6.20;99.90;;;;;;6062976;23;20346;-83
2022/04/10 01:14:21;;;;;;;11.70;3.30;;;8.10;99.90;;;;;;6063031;23;20021;-84
2022/04/10 01:16:47;;;;;;;14.80;3.50;;;3.20;99.90;;;;;;6089824;23;20097;-83
2022/04/10 01:19:15;;;;;;;26.35;3.45;;;6.70;99.90;;;;;;6063268;23;20029;-82
2022/04/10 01:21:44;;;;;;;28.67;4.32;;;4.50;99.90;;;;;;6089081;23;20346;-83
2022/04/10 01:24:14;;;;;;;26.30;4.35;;;4.50;99.90;;;;;;6062830;23;20104;-83
2022/04/10 01:26:41;;;;;;;18.52;3.60;;;6.10;99.90;;;;;;6089112;23;20473;-83
2022/04/10 01:29:11;;;;;;;14.90;3.70;;;4.50;99.90;;;;;;6063593;23;20062;-84
2022/04/10 01:31:40;;;;;;;20.55;3.65;;;4.10;99.90;;;;;;6091149;23;20022;-85
2022/04/10 01:34:08;;;;;;;22.40;3.60;;;4.20;99.90;;;;;;6093824;23;20018;-82
2022/04/10 01:36:36;;;;;;;16.55;3.40;;;4.50;99.90;;;;;;6092113;23;20014;-83
2022/04/10 01:39:04;;;;;;;26.63;3.75;;;4.40;99.90;;;;;;6088262;23;20101;-86
2022/04/10 01:41:30;;;;;;;;;;;6.10;99.90;;;;;;6090525;23;20046;-83
2022/04/10 01:43:57;;;;;;;21.52;3.95;;;6.10;99.90;;;;;;6088748;23;20040;-83
2022/04/10 01:46:25;;;;;;;15.07;3.35;;;4.00;99.90;;;;;;6067814;23;20018;-82
2022/04/10 01:48:51;;;;;;;31.05;4.45;;;;;;;;;;6092959;23;20025;-83
2022/04/10 01:51:17;;;;;;;28.60;3.78;;;;;;;;;;6091094;23;20054;-84
2022/04/10 01:53:43;;;;;;;21.75;3.90;;;5.90;99.90;;;;;;6092924;23;20089;-83
2022/04/10 01:56:10;;;;;;;27.40;4.22;;;4.30;99.90;;;;;;6088455;23;20434;-87
2022/04/10 01:58:47;;;;;;;21.65;3.63;;;5.70;99.90;;;;;;6091427;23;20462;-86
2022/04/10 02:01:15;;;;;;;18.90;3.40;;;1.90;99.90;;;;;;6088948;23;20022;-83
2022/04/10 02:03:42;;;;;;;18.42;3.67;;;4.30;99.90;;;;;;6090428;23;20026;-84
2022/04/10 02:06:09;;;;;;;13.40;3.72;;;4.20;99.90;;;;;;6088009;23;20093;-82
2022/04/10 02:08:36;;;;;;;20.95;3.50;;;3.10;99.90;;;;;;6063380;23;20027;-87
2022/04/10 02:11:23;;;;;;;16.63;3.63;;;4.10;99.90;;;;;;6063544;23;20058;-86
2022/04/10 02:13:49;;;;;;;23.73;3.92;;;;;;;;;;6089182;23;20101;-84
2022/04/10 02:16:19;;;;;;;15.38;3.75;;;2.50;99.90;;;;;;6060803;23;20102;-84
2022/04/10 02:18:46;;;;;;;18.80;4.03;;;2.90;99.90;;;;;;6090163;23;20023;-84
2022/04/10 02:21:12;;;;;;;18.88;3.80;;;4.30;99.90;;;;;;6087767;23;20022;-83
2022/04/10 02:23:38;;;;;;;15.48;3.55;;;;;;;;;;6087821;23;20026;-83
2022/04/10 02:26:05;;;;;;;19.85;3.88;;;4.30;99.90;;;;;;6089235;23;20054;-83
2022/04/10 02:28:30;;;;;;;29.95;4.35;;;6.10;99.90;;;;;;6088632;23;20022;-82
2022/04/10 02:30:56;;;;;;;12.85;3.10;;;4.20;99.90;;;;;;6093283;23;20018;-83
2022/04/10 02:33:23;;;;;;;16.98;3.50;;;;;;;;;;6092664;23;20391;-82
2022/04/10 02:35:48;;;;;;;13.38;3.25;;;5.10;99.90;;;;;;6088931;23;20078;-84
2022/04/10 02:38:16;;;;;;;28.20;3.88;;;6.00;99.90;;;;;;6088034;23;20022;-84
2022/04/10 02:40:43;;;;;;;25.02;4.07;;;4.60;99.90;;;;;;6088505;23;20433;-84
2022/04/10 02:43:10;;;;;;;11.57;3.15;;;3.50;99.90;;;;;;6088515;23;20019;-82
2022/04/10 02:45:36;;;;;;;17.50;4.00;;;;;;;;;;6098640;23;20006;-89
2022/04/10 02:48:02;;;;;;;18.98;4.03;;;4.50;99.90;;;;;;6116728;23;20014;-89
2022/04/10 02:50:28;;;;;;;16.83;3.28;;;4.80;99.90;;;;;;6090375;23;20200;-88
2022/04/10 02:52:54;;;;;;;21.73;3.88;;;3.90;99.90;;;;;;6090633;23;20022;-89
2022/04/10 02:55:20;;;;;;;12.50;3.40;;;3.10;99.90;;;;;;6116719;23;20026;-88
2022/04/10 02:57:46;;;;;;;26.85;3.67;;;4.80;99.90;;;;;;6106450;23;20018;-83
2022/04/10 03:00:12;;;;;;;33.72;4.70;;;4.50;99.90;;;;;;6116328;23;20011;-84
2022/04/10 03:02:41;;;;;;;28.70;3.97;;;4.70;99.90;;;;;;6114424;23;20022;-84
2022/04/10 03:05:08;;;;;;;18.70;3.25;;;5.60;99.90;;;;;;6118883;23;20021;-87
2022/04/10 03:07:34;;;;;;;15.02;2.75;;;;;;;;;;6121753;23;20022;-85
2022/04/10 03:10:00;;;;;;;13.55;3.20;;;;;;;;;;6095413;23;20085;-86
2022/04/10 03:12:26;;;;;;;12.77;3.10;;;6.20;99.90;;;;;;6116469;23;20026;-89
2022/04/10 03:14:52;;;;;;;7.82;2.33;;;;;;;;;;6095158;23;20050;-85
2022/04/10 03:17:17;;;;;;;11.80;2.25;;;6.50;99.90;;;;;;6067654;23;20019;-83
2022/04/10 03:19:43;;;;;;;14.45;2.75;;;4.30;99.90;;;;;;6068889;23;20029;-84
2022/04/10 03:22:09;;;;;;;17.65;3.30;;;5.80;99.90;;;;;;6094817;23;20097;-83
2022/04/10 03:24:34;;;;;;;24.40;3.40;;;7.50;99.90;;;;;;6094641;23;20029;-83
2022/04/10 03:27:00;;;;;;;16.63;3.33;;;5.50;99.90;;;;;;6070052;23;20101;-83
2022/04/10 03:29:26;;;;;;;14.57;3.17;;;5.10;99.90;;;;;;6045373;23;20276;-83
2022/04/10 03:31:52;;;;;;;11.77;2.65;;;;;;;;;;6095268;23;20022;-84
2022/04/10 03:34:17;;;;;;;11.32;2.72;;;5.00;99.90;;;;;;6093278;23;20446;-85
2022/04/10 03:36:43;;;;;;;15.65;2.58;;;5.10;99.90;;;;;;6094548;23;20025;-83
2022/04/10 03:39:09;;;;;;;14.30;2.80;;;7.20;99.90;;;;;;6095941;23;20405;-86
2022/04/10 03:41:34;;;;;;;11.05;2.72;;;5.20;99.90;;;;;;6096476;23;20427;-83
2022/04/10 03:44:00;;;;;;;10.82;2.70;;;8.00;99.90;;;;;;6095534;23;20501;-83
2022/04/10 03:46:26;;;;;;;11.55;3.00;;;;;;;;;;6093177;23;20069;-84
2022/04/10 03:48:52;;;;;;;14.25;2.70;;;6.10;99.90;;;;;;6096266;23;20026;-84
2022/04/10 03:51:18;;;;;;;20.10;4.05;;;6.50;99.90;;;;;;6092314;23;20053;-84
2022/04/10 03:53:44;;;;;;;12.05;2.55;;;5.90;99.90;;;;;;6094379;23;20030;-83
2022/04/10 03:56:10;;;;;;;9.80;2.40;;;7.40;99.90;;;;;;6092692;23;20374;-83
2022/04/10 03:58:35;;;;;;;11.32;2.40;;;7.40;99.90;;;;;;6093990;23;20483;-83
2022/04/10 04:01:01;;;;;;;12.43;3.03;;;5.10;99.90;;;;;;6066813;23;20072;-85
2022/04/10 04:03:27;;;;;;;13.63;2.40;;;;;;;;;;6092724;23;20077;-84
2022/04/10 04:05:53;;;;;;;11.13;2.35;;;5.20;99.90;;;;;;6089095;23;20093;-84
2022/04/10 04:08:19;;;;;;;10.25;2.53;;;6.70;99.90;;;;;;6092657;23;20027;-83
2022/04/10 04:10:45;;;;;;;10.73;2.05;;;;;;;;;;6094098;23;20018;-84
2022/04/10 04:13:11;;;;;;;6.55;1.63;;;5.50;99.90;;;;;;6094131;23;20014;-85
2022/04/10 04:15:36;;;;;;;8.52;1.77;;;6.70;99.90;;;;;;6095294;23;20081;-84
2022/04/10 04:18:02;;;;;;;7.20;1.85;;;;;;;;;;6067970;23;20498;-87
2022/04/10 04:20:28;;;;;;;8.02;1.80;;;5.60;99.90;;;;;;6092418;23;20029;-84
2022/04/10 04:22:54;;;;;;;5.22;1.80;;;;;;;;;;6094267;23;20434;-84
2022/04/10 04:25:20;;;;;;;6.78;1.48;;;5.20;99.90;;;;;;6092592;23;20086;-85
2022/04/10 04:27:46;;;;;;;4.90;1.70;;;3.80;99.90;;;;;;6092946;23;20027;-84
2022/04/10 04:30:12;;;;;;;3.85;1.60;;;3.40;99.90;;;;;;6093945;23;20023;-85
2022/04/10 04:32:38;;;;;;;8.95;1.48;;;5.30;99.90;;;;;;6093922;23;20084;-84
2022/04/10 04:35:04;;;;;;;5.32;1.75;;;4.90;99.90;;;;;;6093436;23;20022;-88
2022/04/10 04:37:30;;;;;;;8.60;1.83;;;;;;;;;;6067816;23;20014;-85
2022/04/10 04:39:56;;;;;;;8.10;1.88;;;5.60;99.90;;;;;;6093846;23;20157;-84
2022/04/10 04:42:22;;;;;;;7.72;1.92;;;;;;;;;;6093861;23;20109;-85
2022/04/10 04:44:48;;;;;;;10.60;1.98;;;;;;;;;;6094343;23;20022;-85
2022/04/10 04:47:14;;;;;;;10.40;2.45;;;2.50;99.90;;;;;;6093394;23;20022;-84
2022/04/10 04:49:39;;;;;;;9.73;2.25;;;4.30;99.90;;;;;;6094071;23;20053;-85
2022/04/10 04:52:05;;;;;;;7.60;2.03;;;6.00;99.90;;;;;;6067463;23;20342;-83
2022/04/10 04:54:31;;;;;;;7.45;2.25;;;4.60;99.90;;;;;;6093867;23;20101;-85
2022/04/10 04:56:57;;;;;;;16.63;2.15;;;4.60;99.90;;;;;;6093442;23;20022;-84
2022/04/10 04:59:22;;;;;;;8.52;2.20;;;3.20;99.90;;;;;;6067998;23;20299;-85
2022/04/10 05:01:48;;;;;;;10.98;1.80;;;4.80;99.90;;;;;;6067787;23;20022;-84
2022/04/10 05:04:14;;;;;;;12.80;2.28;;;7.30;99.90;;;;;;6094691;23;20022;-84
2022/04/10 05:06:39;;;;;;;15.75;2.45;;;4.30;99.90;;;;;;6092405;23;20314;-84
2022/04/10 05:09:05;;;;;;;4.95;1.98;;;6.70;99.90;;;;;;6093857;23;20032;-84
2022/04/10 05:11:31;;;;;;;9.85;2.38;;;3.80;99.90;;;;;;6092765;23;20030;-84
2022/04/10 05:13:57;;;;;;;7.28;2.17;;;5.60;99.90;;;;;;6068537;23;20469;-84
2022/04/10 05:16:23;;;;;;;9.35;2.38;;;4.30;99.90;;;;;;6093625;23;20018;-85
2022/04/10 05:18:49;;;;;;;14.45;2.65;;;;;;;;;;6094174;23;20023;-85
2022/04/10 05:21:16;;;;;;;7.10;2.17;;;4.60;99.90;;;;;;6093044;23;20088;-83
2022/04/10 05:23:41;;;;;;;17.75;3.17;;;6.10;99.90;;;;;;6068175;23;20450;-84
2022/04/10 05:26:07;;;;;;;11.35;2.25;;;6.70;99.90;;;;;;6093547;23;20050;-84
2022/04/10 05:28:34;;;;;;;10.77;2.33;;;6.50;99.90;;;;;;6093608;23;20045;-84
2022/04/10 05:31:01;;;;;;;11.35;1.90;;;4.70;99.90;;;;;;6094892;23;20021;-84
2022/04/10 05:33:36;;;;;;;10.10;2.35;;;5.10;99.90;;;;;;6092664;23;20097;-84
2022/04/10 05:36:02;;;;;;;14.27;2.65;;;5.60;99.90;;;;;;6094167;23;20393;-84
2022/04/10 05:38:28;;;;;;;12.52;2.60;;;7.50;99.90;;;;;;6092913;23;20077;-83
2022/04/10 05:40:54;;;;;;;12.32;2.58;;;6.40;99.90;;;;;;6093670;23;20026;-84
2022/04/10 05:43:21;;;;;;;15.65;2.60;;;5.40;99.90;;;;;;6094277;23;20018;-84
2022/04/10 05:45:47;;;;;;;11.52;2.97;;;7.30;99.90;;;;;;6094969;23;20026;-84
2022/04/10 05:48:13;;;;;;;10.70;2.53;;;6.70;99.90;;;;;;6094272;23;20037;-85
2022/04/10 05:50:39;;;;;;;9.90;3.22;;;6.40;99.90;;;;;;6094071;23;20430;-84
2022/04/10 05:53:05;;;;;;;10.88;2.85;;;5.40;99.90;;;;;;6094365;23;20025;-84
2022/04/10 05:55:31;;;;;;;10.82;2.30;;;5.90;99.90;;;;;;6093699;23;20338;-85
2022/04/10 05:57:57;;;;;;;14.38;3.05;;;;;;;;;;6094191;23;20053;-86
2022/04/10 06:00:26;;;;;;;11.85;3.10;;;5.10;99.90;;;;;;6094447;23;20026;-87
2022/04/10 06:02:52;;;;;;;8.60;2.25;;;;;;;;;;6093722;23;20018;-84
2022/04/10 06:05:19;;;;;;;9.57;2.90;;;5.80;99.90;;;;;;6093930;23;20076;-84
2022/04/10 06:07:44;;;;;;;11.15;2.78;;;6.70;99.90;;;;;;6092155;23;20399;-84
2022/04/10 06:10:10;;;;;;;10.85;2.50;;;8.80;99.90;;;;;;6093572;23;20023;-86
2022/04/10 06:12:36;;;;;;;11.43;2.63;;;6.30;99.90;;;;;;6093178;23;20026;-86
2022/04/10 06:15:02;;;;;;;9.00;2.55;;;;;;;;;;6093473;23;20510;-86
2022/04/10 06:17:28;;;;;;;9.27;2.53;;;6.00;99.90;;;;;;6092563;23;20086;-86
2022/04/10 06:19:54;;;;;;;11.10;2.90;;;;;;;;;;6093261;23;20450;-85
2022/04/10 06:22:20;;;;;;;14.63;2.58;;;5.20;99.90;;;;;;6093627;23;20249;-85
2022/04/10 06:24:46;;;;;;;9.43;2.72;;;;;;;;;;6042917;23;20074;-87
2022/04/10 06:27:11;;;;;;;12.45;2.90;;;6.00;99.90;;;;;;6093292;23;20022;-85
2022/04/10 06:29:37;;;;;;;10.48;2.50;;;5.50;99.90;;;;;;6092182;23;20045;-87
2022/04/10 06:32:03;;;;;;;13.45;2.95;;;6.00;99.90;;;;;;6068471;23;20018;-86
2022/04/10 06:34:29;;;;;;;13.40;3.00;;;5.30;99.90;;;;;;6069890;23;20034;-86
2022/04/10 06:36:55;;;;;;;8.77;2.97;;;5.90;99.90;;;;;;6095051;23;20109;-86
2022/04/10 06:39:21;;;;;;;20.58;3.03;;;7.90;99.90;;;;;;6093930;23;20018;-86
2022/04/10 06:41:46;;;;;;;15.90;3.13;;;7.10;99.90;;;;;;6095301;23;20029;-85
2022/04/10 06:44:12;;;;;;;18.05;3.50;;;9.10;99.90;;;;;;6095885;23;20038;-86
2022/04/10 06:46:37;;;;;;;9.43;2.78;;;7.70;99.90;;;;;;6068546;23;20101;-85
2022/04/10 06:49:03;;;;;;;8.63;2.92;;;6.30;99.90;;;;;;6095005;23;20050;-86
2022/04/10 06:51:29;;;;;;;17.38;2.90;;;6.70;99.90;;;;;;6067860;23;20114;-85
2022/04/10 06:53:55;;;;;;;15.60;2.97;;;7.60;99.90;;;;;;6094923;23;20077;-85
2022/04/10 06:56:20;;;;;;;9.38;3.03;;;7.10;99.90;;;;;;6069094;23;20029;-88
2022/04/10 06:58:46;;;;;;;17.00;3.30;;;7.80;99.90;;;;;;6095310;23;20018;-86
2022/04/10 07:01:12;;;;;;;20.08;2.63;;;;;;;;;;6094224;23;20058;-89
2022/04/10 07:03:37;;;;;;;13.30;2.50;;;5.30;99.90;;;;;;6094185;23;20057;-87
2022/04/10 07:06:03;;;;;;;12.27;2.83;;;9.80;99.90;;;;;;6069038;23;20050;-87
2022/04/10 07:08:29;;;;;;;9.18;2.78;;;7.80;99.90;;;;;;6069525;23;20106;-88
2022/04/10 07:10:55;;;;;;;22.20;2.92;;;7.10;99.90;;;;;;6095639;23;20056;-87
2022/04/10 07:13:21;;;;;;;10.25;2.60;;;9.00;99.90;;;;;;6044267;23;20023;-87
2022/04/10 07:15:50;;;;;;;9.90;3.80;;;7.00;99.90;;;;;;6092386;23;20332;-87
2022/04/10 07:18:15;;;;;;;9.85;2.45;;;6.90;99.90;;;;;;6069287;23;20014;-87
2022/04/10 07:20:41;;;;;;;13.70;2.63;;;6.90;99.90;;;;;;6068537;23;20018;-87
2022/04/10 07:25:53;;;;;;;17.52;3.13;;;6.80;99.90;;;;;;6072553;23;20277;-87
2022/04/10 07:28:19;;;;;;;12.73;2.83;;;8.60;99.90;;;;;;6094989;23;20421;-87
2022/04/10 07:30:45;;;;;;;14.80;2.83;;;;;;;;;;6094728;23;20046;-87
2022/04/10 07:33:11;;;;;;;15.25;3.13;;;7.20;99.90;;;;;;6095066;23;20065;-85
2022/04/10 07:35:40;;;;;;;13.15;3.25;;;9.00;99.90;;;;;;6094171;23;20026;-87
2022/04/10 07:38:06;;;;;;;8.23;3.30;;;10.80;99.90;;;;;;6094974;23;20025;-87
2022/04/10 07:40:38;;;;;;;21.95;4.10;;;10.40;99.90;;;;;;6094977;23;20397;-87
2022/04/10 07:43:04;;;;;;;18.17;10.00;;;11.40;99.90;;;;;;6095506;23;20057;-86
2022/04/10 07:48:15;;;;;;;13.73;3.95;;;11.80;99.90;;;;;;6095637;23;20098;-86
2022/04/10 07:50:41;;;;;;;13.70;3.15;;;13.10;99.90;;;;;;6095174;23;20500;-85
2022/04/10 07:53:07;;;;;;;12.88;3.10;;;11.60;99.90;;;;;;6095568;23;20022;-85
2022/04/10 07:55:33;;;;;;;129.43;25.38;;;12.90;99.90;;;;;;6070190;23;20435;-86
2022/04/10 07:57:59;;;;;;;9.57;2.30;;;11.30;99.90;;;;;;6069764;23;20089;-85
2022/04/10 08:00:25;;;;;;;8.40;2.35;;;11.60;99.90;;;;;;6070079;23;20022;-86
2022/04/10 08:02:52;;;;;;;12.88;2.65;;;12.20;99.90;;;;;;6068654;23;20022;-86
2022/04/10 08:05:19;;;;;;;9.00;2.60;;;13.20;99.90;;;;;;6069809;23;20048;-85
2022/04/10 08:07:46;;;;;;;6.72;2.00;;;15.00;99.90;;;;;;6095371;23;20018;-86
2022/04/10 08:10:13;;;;;;;12.55;2.15;;;15.10;99.90;;;;;;6095896;23;20101;-86
2022/04/10 08:12:39;;;;;;;11.70;2.38;;;15.60;99.90;;;;;;6044991;23;20026;-85
2022/04/10 08:15:06;;;;;;;15.43;13.38;;;16.00;99.90;;;;;;6095182;23;20023;-86
2022/04/10 08:17:31;;;;;;;14.82;2.53;;;16.00;99.90;;;;;;6094116;23;20041;-86
2022/04/10 08:19:57;;;;;;;9.23;2.10;;;17.80;99.90;;;;;;6092588;23;20461;-86
2022/04/10 08:22:26;;;;;;;15.68;2.72;;;16.00;99.90;;;;;;6044371;23;20104;-86
2022/04/10 08:24:53;;;;;;;20.88;8.10;;;16.50;99.90;;;;;;6094331;23;20054;-86
2022/04/10 08:27:19;;;;;;;14.63;2.47;;;16.90;99.90;;;;;;6095048;23;20021;-84
2022/04/10 08:29:45;;;;;;;11.77;6.32;;;17.20;99.90;;;;;;6094851;23;20053;-84
2022/04/10 08:32:11;;;;;;;14.90;4.18;;;17.10;99.90;;;;;;6092560;23;20029;-85
2022/04/10 08:34:37;;;;;;;12.02;5.18;;;17.00;99.90;;;;;;6094497;23;20022;-86
2022/04/10 08:37:05;;;;;;;12.00;2.65;;;16.60;99.90;;;;;;6093467;23;20022;-85
2022/04/10 08:39:34;;;;;;;15.60;4.30;;;16.60;99.90;;;;;;6067550;23;20136;-86
2022/04/10 08:42:05;;;;;;;19.02;12.85;;;16.80;99.90;;;;;;6093176;23;20445;-87
2022/04/10 08:44:31;;;;;;;16.80;6.03;;;17.00;99.90;;;;;;6093964;23;20065;-85
2022/04/10 08:46:58;;;;;;;10.23;6.32;;;16.80;99.90;;;;;;6093118;23;20093;-85
2022/04/10 08:49:26;;;;;;;16.08;7.22;;;17.10;99.90;;;;;;6094846;23;20045;-85
2022/04/10 08:51:53;;;;;;;14.77;8.63;;;17.00;99.90;;;;;;6093486;23;20022;-85
2022/04/10 08:54:22;;;;;;;10.30;3.70;;;17.30;99.90;;;;;;6094687;23;20030;-86
2022/04/10 08:56:48;;;;;;;11.10;3.17;;;17.50;99.90;;;;;;6094493;23;20022;-85
2022/04/10 08:59:13;;;;;;;10.80;4.13;;;17.30;99.90;;;;;;6095180;23;20022;-84
2022/04/10 09:01:39;;;;;;;9.77;2.05;;;16.20;99.90;;;;;;6094309;23;20446;-85
2022/04/10 09:04:05;;;;;;;7.60;2.75;;;15.10;99.90;;;;;;6094594;23;20030;-85
2022/04/10 09:06:31;;;;;;;12.15;2.72;;;15.50;99.90;;;;;;6045088;23;20022;-83
2022/04/10 09:09:18;;;;;;;7.47;1.88;;;16.00;99.90;;;;;;6094205;23;20057;-85
2022/04/10 09:11:44;;;;;;;12.85;3.17;;;16.30;99.90;;;;;;6094261;23;20430;-84
2022/04/10 09:14:10;;;;;;;11.77;2.67;;;15.80;99.90;;;;;;6094924;23;20073;-84
2022/04/10 09:16:35;;;;;;;23.33;14.48;;;15.20;99.90;;;;;;6044438;23;20058;-84
2022/04/10 09:19:07;;;;;;;16.35;3.58;;;13.60;99.90;;;;;;6094684;23;20359;-85
2022/04/10 09:21:35;;;;;;;8.77;2.20;;;13.40;99.90;;;;;;6068763;23;20300;-86
2022/04/10 09:24:08;;;;;;;10.73;2.58;;;14.70;99.90;;;;;;6069152;23;20014;-85
2022/04/10 09:26:46;;;;;;;10.52;3.20;;;14.30;99.90;;;;;;6094240;23;20407;-85
2022/04/10 09:29:14;;;;;;;9.75;2.38;;;15.50;99.90;;;;;;6094769;23;20475;-85
2022/04/10 09:31:40;;;;;;;13.65;2.42;;;16.50;99.90;;;;;;6093914;23;20391;-85
2022/04/10 09:34:08;;;;;;;5.13;1.52;;;16.20;99.90;;;;;;6093880;23;20041;-85
2022/04/10 09:36:34;;;;;;;;;;;15.50;99.90;;;;;;6068123;23;20026;-85
2022/04/10 09:39:01;;;;;;;10.98;4.97;;;14.60;99.90;;;;;;6092787;23;20285;-84
2022/04/10 09:41:27;;;;;;;12.13;1.95;;;13.80;99.90;;;;;;6068014;23;20014;-87
2022/04/10 09:43:53;;;;;;;7.05;1.60;;;14.30;99.90;;;;;;6093177;23;20296;-84
2022/04/10 09:46:18;;;;;;;6.68;1.60;;;15.40;99.90;;;;;;6067325;23;20108;-85
2022/04/10 09:48:44;;;;;;;7.63;1.98;;;16.80;99.90;;;;;;6094483;23;20028;-84
2022/04/10 09:51:11;;;;;;;7.38;1.63;;;17.10;99.90;;;;;;6093914;23;20326;-84
2022/04/10 09:53:37;;;;;;;6.57;1.63;;;17.60;99.90;;;;;;6094310;23;20015;-84
2022/04/10 09:56:05;;;;;;;15.60;1.65;;;18.40;99.90;;;;;;6093712;23;20006;-84
2022/04/10 09:58:32;;;;;;;10.60;2.05;;;19.10;99.90;;;;;;6093750;23;20158;-85
2022/04/10 10:01:00;;;;;;;6.43;2.35;;;19.10;99.90;;;;;;6093424;23;20382;-84
2022/04/10 10:03:31;;;;;;;10.57;2.45;;;17.90;99.90;;;;;;6092473;23;20019;-85
2022/04/10 10:05:58;;;;;;;10.95;2.33;;;16.50;99.90;;;;;;6093122;23;20085;-85
2022/04/10 10:08:25;;;;;;;13.68;2.63;;;15.50;99.90;;;;;;6096035;23;20025;-83
2022/04/10 10:10:51;;;;;;;8.63;1.83;;;14.60;99.90;;;;;;6069603;23;20106;-85
2022/04/10 10:13:18;;;;;;;12.23;3.15;;;14.80;99.90;;;;;;6096551;23;20014;-84
2022/04/10 10:15:44;;;;;;;7.60;2.78;;;16.10;99.90;;;;;;6070873;23;20019;-84
2022/04/10 10:18:12;;;;;;;8.25;1.73;;;17.00;99.90;;;;;;6070238;23;20243;-83
2022/04/10 10:20:40;;;;;;;8.80;2.00;;;17.90;99.90;;;;;;6095969;23;20015;-85
2022/04/10 10:23:13;;;;;;;7.72;2.13;;;17.80;99.90;;;;;;6095563;23;20341;-85
2022/04/10 10:26:16;;;;;;;9.88;2.28;;;18.30;99.90;;;;;;6095854;23;20018;-84
2022/04/10 10:29:16;;;;;;;12.10;2.15;;;19.20;99.90;;;;;;6096519;23;20449;-85
2022/04/10 10:32:00;;;;;;;10.73;1.90;;;20.50;99.90;;;;;;6095624;23;20014;-85
2022/04/10 10:34:28;;;;;;;11.50;3.00;;;20.60;99.90;;;;;;6096341;23;20029;-84
2022/04/10 10:36:54;;;;;;;6.95;1.92;;;19.90;99.90;;;;;;6094900;23;20065;-88
2022/04/10 10:39:21;;;;;;;8.35;2.03;;;19.00;99.90;;;;;;6096177;23;20022;-87
2022/04/10 10:41:51;;;;;;;8.13;1.90;;;18.80;99.90;;;;;;6095746;23;20103;-83
2022/04/10 10:44:47;;;;;;;8.00;2.00;;;19.30;99.90;;;;;;6071084;23;20014;-84
2022/04/10 10:47:22;;;;;;;8.73;1.92;;;19.90;99.90;;;;;;6069154;23;20014;-83
2022/04/10 10:49:49;;;;;;;7.93;1.90;;;20.80;99.90;;;;;;6096434;23;20057;-85
2022/04/10 10:52:16;;;;;;;5.15;1.60;;;19.70;99.90;;;;;;6096590;23;20030;-83
2022/04/10 10:54:51;;;;;;;10.27;2.10;;;19.00;99.90;;;;;;6096322;23;20786;-87
2022/04/10 10:57:38;;;;;;;10.50;2.30;;;18.70;99.90;;;;;;6069759;23;20069;-83
2022/04/10 11:00:22;;;;;;;9.60;2.25;;;18.70;99.90;;;;;;6095166;23;20019;-83
2022/04/10 11:02:52;;;;;;;6.72;1.77;;;19.60;99.90;;;;;;6047582;23;20030;-83
2022/04/10 11:05:24;;;;;;;8.13;1.80;;;19.70;99.90;;;;;;6095770;23;20476;-83
2022/04/10 11:08:02;;;;;;;7.30;1.77;;;19.90;99.90;;;;;;6096265;23;20014;-83
2022/04/10 11:10:31;;;;;;;7.75;1.60;;;19.70;99.90;;;;;;6096105;23;20022;-84
2022/04/10 11:13:04;;;;;;;7.97;1.73;;;20.00;99.90;;;;;;6096328;23;20441;-83
2022/04/10 11:15:48;;;;;;;8.30;1.65;;;20.30;99.90;;;;;;6096476;23;20085;-84
2022/04/10 11:18:23;;;;;;;10.90;2.10;;;20.40;99.90;;;;;;6095060;23;20037;-84
2022/04/10 11:21:05;;;;;;;8.77;2.10;;;19.40;99.90;;;;;;6095020;23;20375;-85
2022/04/10 11:23:31;;;;;;;7.40;1.63;;;19.10;99.90;;;;;;6095639;23;20015;-85
2022/04/10 11:26:07;;;;;;;8.25;1.88;;;19.30;99.90;;;;;;6091381;23;20018;-92
2022/04/10 11:28:53;;;;;;;8.43;1.88;;;20.00;99.90;;;;;;6095152;23;20024;-87
2022/04/10 11:31:30;;;;;;;8.88;1.83;;;20.30;99.90;;;;;;6070394;23;20022;-89
2022/04/10 11:34:14;;;;;;;7.55;1.85;;;21.30;99.90;;;;;;6095828;23;20073;-87
2022/04/10 11:36:52;;;;;;;8.27;1.90;;;21.30;99.90;;;;;;6095854;23;20015;-86
2022/04/10 11:39:35;;;;;;;10.75;1.98;;;21.20;99.90;;;;;;6093894;23;20050;-86
2022/04/10 11:42:04;;;;;;;7.32;1.50;;;22.00;99.90;;;;;;6095331;23;20110;-87
2022/04/10 11:44:30;;;;;;;6.50;1.48;;;22.00;99.90;;;;;;6095520;23;20025;-87
2022/04/10 11:46:59;;;;;;;4.85;1.42;;;21.80;99.90;;;;;;6069719;23;20010;-88
2022/04/10 11:49:25;;;;;;;5.35;1.80;;;22.00;99.90;;;;;;6095751;23;20019;-86
2022/04/10 11:51:59;;;;;;;6.07;1.58;;;21.70;99.90;;;;;;6094802;23;20064;-88
2022/04/10 11:54:26;;;;;;;7.70;1.90;;;21.90;99.90;;;;;;6095531;23;20333;-87
2022/04/10 11:56:52;;;;;;;7.10;1.70;;;21.60;99.90;;;;;;6093600;23;20030;-87
2022/04/10 11:59:23;;;;;;;6.40;2.00;;;21.80;99.90;;;;;;6069395;23;20546;-86
2022/04/10 12:01:49;;;;;;;8.38;1.77;;;19.80;99.90;;;;;;6094781;23;20089;-87
2022/04/10 12:04:18;;;;;;;7.07;1.80;;;19.00;99.90;;;;;;6094728;23;20352;-87
2022/04/10 12:06:44;;;;;;;7.25;1.80;;;17.20;99.90;;;;;;6094576;23;20015;-87
2022/04/10 12:09:10;;;;;;;9.95;1.73;;;16.40;99.90;;;;;;6092313;23;20018;-87
2022/04/10 12:11:38;;;;;;;6.53;1.60;;;16.80;99.90;;;;;;6094276;23;20023;-85
2022/04/10 12:14:16;;;;;;;9.02;1.48;;;17.80;99.90;;;;;;6045057;23;20014;-86
2022/04/10 12:16:43;;;;;;;8.60;1.80;;;18.60;99.90;;;;;;6093977;23;20422;-85
2022/04/10 12:19:09;;;;;;;5.30;1.73;;;18.60;99.90;;;;;;6091136;23;20184;-87
2022/04/10 12:21:34;;;;;;;8.63;2.10;;;17.60;99.90;;;;;;6093964;23;20149;-86
2022/04/10 12:24:03;;;;;;;10.98;1.75;;;16.90;99.90;;;;;;6094551;23;20081;-90
2022/04/10 12:26:29;;;;;;;4.60;1.55;;;16.20;99.90;;;;;;6095046;23;20025;-87
2022/04/10 12:28:55;;;;;;;6.38;1.63;;;15.80;99.90;;;;;;6093983;23;20029;-87
2022/04/10 12:31:21;;;;;;;6.95;1.63;;;15.50;99.90;;;;;;6093219;23;20077;-87
2022/04/10 12:33:47;;;;;;;7.20;1.40;;;15.10;99.90;;;;;;6094243;23;20018;-87
2022/04/10 12:36:17;;;;;;;8.27;1.73;;;14.90;99.90;;;;;;6093452;23;20065;-87
2022/04/10 12:38:43;;;;;;;6.55;1.73;;;14.80;99.90;;;;;;6094731;23;20061;-87
2022/04/10 12:41:09;;;;;;;8.60;1.70;;;14.60;99.90;;;;;;6092580;23;20026;-87
2022/04/10 12:43:34;;;;;;;9.30;1.77;;;14.30;99.90;;;;;;6068906;23;20026;-87
2022/04/10 12:46:11;;;;;;;11.77;2.15;;;14.20;99.90;;;;;;6069026;23;20066;-88
2022/04/10 12:48:37;;;;;;;6.70;2.08;;;14.20;99.90;;;;;;6094230;23;20023;-87
2022/04/10 12:51:10;;;;;;;8.77;1.80;;;13.80;99.90;;;;;;6094194;23;20347;-87
2022/04/10 12:53:37;;;;;;;6.32;1.63;;;13.70;99.90;;;;;;6094271;23;20025;-87
2022/04/10 12:56:18;;;;;;;8.45;1.90;;;13.70;1.00;;;;;;6094791;23;20065;-86
2022/04/10 12:58:45;;;;;;;6.32;1.73;;;13.60;99.90;;;;;;6094321;23;20078;-85
2022/04/10 13:01:28;;;;;;;9.47;2.10;;;13.30;32.40;;;;;;6067678;23;20137;-86
2022/04/10 13:03:54;;;;;;;11.48;2.05;;;13.00;1.00;;;;;;6094428;23;20057;-84